sensor_id;sensor_type;location;lat;lon;timestamp;temperature;humidity
10443;DHT22;5269;51.146;16.986;2023-01-28T00:01:37;1.20;99.90
10443;DHT22;5269;51.146;16.986;2023-01-28T00:04:40;1.20;99.90
10443;DHT22;5269;51.146;16.986;2023-01-28T00:07:07;1.10;99.90
10443;DHT22;5269;51.146;16.986;2023-01-28T00:09:34;1.10;99.90
10443;DHT22;5269;51.146;16.986;2023-01-28T00:12:01;1.10;99.90
10443;DHT22;5269;51.146;16.986;2023-01-28T00:14:29;1.10;99.90
10443;DHT22;5269;51.146;16.986;2023-01-28T00:16:56;1.00;99.90
10443;DHT22;5269;51.146;16.986;2023-01-28T00:19:23;1.00;99.90
10443;DHT22;5269;51.146;16.986;2023-01-28T00:21:52;1.10;99.90
10443;DHT22;5269;51.146;16.986;2023-01-28T00:27:43;1.10;99.90
10443;DHT22;5269;51.146;16.986;2023-01-28T00:30:14;1.20;99.90
10443;DHT22;5269;51.146;16.986;2023-01-28T00:36:03;1.10;99.90
10443;DHT22;5269;51.146;16.986;2023-01-28T00:42:04;1.10;99.90
10443;DHT22;5269;51.146;16.986;2023-01-28T00:47:58;1.10;99.90
10443;DHT22;5269;51.146;16.986;2023-01-28T00:50:25;1.10;99.90
10443;DHT22;5269;51.146;16.986;2023-01-28T00:52:52;1.10;99.90
10443;DHT22;5269;51.146;16.986;2023-01-28T00:55:22;1.10;99.90
10443;DHT22;5269;51.146;16.986;2023-01-28T01:01:13;1.10;99.90
10443;DHT22;5269;51.146;16.986;2023-01-28T01:10:46;1.10;99.90
10443;DHT22;5269;51.146;16.986;2023-01-28T01:16:42;1.10;99.90
10443;DHT22;5269;51.146;16.986;2023-01-28T01:22:36;1.00;99.90
10443;DHT22;5269;51.146;16.986;2023-01-28T01:28:26;0.90;99.90
10443;DHT22;5269;51.146;16.986;2023-01-28T01:34:15;0.80;99.90
10443;DHT22;5269;51.146;16.986;2023-01-28T01:36:42;0.90;99.90
10443;DHT22;5269;51.146;16.986;2023-01-28T01:42:33;0.70;99.90
10443;DHT22;5269;51.146;16.986;2023-01-28T01:48:28;0.70;99.90
10443;DHT22;5269;51.146;16.986;2023-01-28T01:51:02;0.60;99.90
10443;DHT22;5269;51.146;16.986;2023-01-28T01:56:54;0.60;99.90
10443;DHT22;5269;51.146;16.986;2023-01-28T02:02:45;0.70;99.90
10443;DHT22;5269;51.146;16.986;2023-01-28T02:05:17;0.60;99.90
10443;DHT22;5269;51.146;16.986;2023-01-28T02:07:45;0.60;99.90
10443;DHT22;5269;51.146;16.986;2023-01-28T02:10:15;0.60;99.90
10443;DHT22;5269;51.146;16.986;2023-01-28T02:16:06;0.60;99.90
10443;DHT22;5269;51.146;16.986;2023-01-28T02:18:36;0.60;99.90
10443;DHT22;5269;51.146;16.986;2023-01-28T02:21:28;0.50;99.90
10443;DHT22;5269;51.146;16.986;2023-01-28T02:24:09;0.40;99.90
10443;DHT22;5269;51.146;16.986;2023-01-28T02:27:21;0.40;99.90
10443;DHT22;5269;51.146;16.986;2023-01-28T02:29:55;0.40;99.90
10443;DHT22;5269;51.146;16.986;2023-01-28T02:32:29;0.30;99.90
10443;DHT22;5269;51.146;16.986;2023-01-28T02:35:02;0.40;99.90
10443;DHT22;5269;51.146;16.986;2023-01-28T02:37:39;0.40;99.90
10443;DHT22;5269;51.146;16.986;2023-01-28T02:40:12;0.30;99.90
10443;DHT22;5269;51.146;16.986;2023-01-28T02:42:40;0.40;99.90
10443;DHT22;5269;51.146;16.986;2023-01-28T02:45:18;0.40;99.90
10443;DHT22;5269;51.146;16.986;2023-01-28T02:47:46;0.30;99.90
10443;DHT22;5269;51.146;16.986;2023-01-28T02:50:29;0.30;99.90
10443;DHT22;5269;51.146;16.986;2023-01-28T02:53:07;0.30;99.90
10443;DHT22;5269;51.146;16.986;2023-01-28T02:55:54;0.30;99.90
10443;DHT22;5269;51.146;16.986;2023-01-28T02:58:28;0.30;99.90
10443;DHT22;5269;51.146;16.986;2023-01-28T03:01:06;0.20;99.90
10443;DHT22;5269;51.146;16.986;2023-01-28T03:03:41;0.30;99.90
10443;DHT22;5269;51.146;16.986;2023-01-28T03:06:13;0.10;99.90
10443;DHT22;5269;51.146;16.986;2023-01-28T03:08:44;0.20;99.90
10443;DHT22;5269;51.146;16.986;2023-01-28T03:11:31;0.10;99.90
10443;DHT22;5269;51.146;16.986;2023-01-28T03:14:18;0.10;99.90
10443;DHT22;5269;51.146;16.986;2023-01-28T03:17:04;0.10;99.90
10443;DHT22;5269;51.146;16.986;2023-01-28T03:23:21;0.10;99.90
10443;DHT22;5269;51.146;16.986;2023-01-28T03:26:07;0.20;99.90
10443;DHT22;5269;51.146;16.986;2023-01-28T03:32:15;0.20;99.90
10443;DHT22;5269;51.146;16.986;2023-01-28T03:38:23;0.20;99.90
10443;DHT22;5269;51.146;16.986;2023-01-28T03:41:00;0.20;99.90
10443;DHT22;5269;51.146;16.986;2023-01-28T03:46:49;0.20;99.90
10443;DHT22;5269;51.146;16.986;2023-01-28T03:52:39;0.20;99.90
10443;DHT22;5269;51.146;16.986;2023-01-28T03:58:28;0.10;99.90
10443;DHT22;5269;51.146;16.986;2023-01-28T04:01:10;0.10;99.90
10443;DHT22;5269;51.146;16.986;2023-01-28T04:06:59;0.10;99.90
10443;DHT22;5269;51.146;16.986;2023-01-28T04:12:49;0.10;99.90
10443;DHT22;5269;51.146;16.986;2023-01-28T04:15:18;0.20;99.90
10443;DHT22;5269;51.146;16.986;2023-01-28T04:17:58;0.00;99.90
10443;DHT22;5269;51.146;16.986;2023-01-28T04:20:26;0.00;99.90
10443;DHT22;5269;51.146;16.986;2023-01-28T04:23:18;0.10;99.90
10443;DHT22;5269;51.146;16.986;2023-01-28T04:25:45;0.10;99.90
10443;DHT22;5269;51.146;16.986;2023-01-28T04:28:40;0.10;99.90
10443;DHT22;5269;51.146;16.986;2023-01-28T04:31:07;0.00;99.90
10443;DHT22;5269;51.146;16.986;2023-01-28T04:33:34;0.00;99.90
10443;DHT22;5269;51.146;16.986;2023-01-28T04:36:01;0.10;99.90
10443;DHT22;5269;51.146;16.986;2023-01-28T04:38:28;0.00;99.90
10443;DHT22;5269;51.146;16.986;2023-01-28T04:41:19;0.00;99.90
10443;DHT22;5269;51.146;16.986;2023-01-28T04:47:28;0.00;99.90
10443;DHT22;5269;51.146;16.986;2023-01-28T04:49:58;0.00;99.90
10443;DHT22;5269;51.146;16.986;2023-01-28T04:55:40;0.10;99.90
10443;DHT22;5269;51.146;16.986;2023-01-28T04:58:33;0.00;99.90
10443;DHT22;5269;51.146;16.986;2023-01-28T05:01:03;0.00;99.90
10443;DHT22;5269;51.146;16.986;2023-01-28T05:03:32;-0.10;99.90
10443;DHT22;5269;51.146;16.986;2023-01-28T05:05:58;-0.10;99.90
10443;DHT22;5269;51.146;16.986;2023-01-28T05:11:44;0.00;99.90
10443;DHT22;5269;51.146;16.986;2023-01-28T05:17:33;-0.10;99.90
10443;DHT22;5269;51.146;16.986;2023-01-28T05:20:01;-0.20;99.90
10443;DHT22;5269;51.146;16.986;2023-01-28T05:22:29;-0.10;99.90
10443;DHT22;5269;51.146;16.986;2023-01-28T05:24:56;-0.10;99.90
10443;DHT22;5269;51.146;16.986;2023-01-28T05:27:25;-0.10;99.90
10443;DHT22;5269;51.146;16.986;2023-01-28T05:29:51;0.00;99.90
10443;DHT22;5269;51.146;16.986;2023-01-28T05:32:18;-0.10;99.90
10443;DHT22;5269;51.146;16.986;2023-01-28T05:34:45;0.00;99.90
10443;DHT22;5269;51.146;16.986;2023-01-28T05:37:13;0.00;99.90
10443;DHT22;5269;51.146;16.986;2023-01-28T05:39:41;0.00;99.90
10443;DHT22;5269;51.146;16.986;2023-01-28T05:42:08;-0.10;99.90
10443;DHT22;5269;51.146;16.986;2023-01-28T05:44:35;-0.20;99.90
10443;DHT22;5269;51.146;16.986;2023-01-28T05:47:02;0.00;99.90
10443;DHT22;5269;51.146;16.986;2023-01-28T05:49:29;0.00;99.90
10443;DHT22;5269;51.146;16.986;2023-01-28T05:51:56;-0.10;99.90
10443;DHT22;5269;51.146;16.986;2023-01-28T05:54:24;-0.10;99.90
10443;DHT22;5269;51.146;16.986;2023-01-28T05:56:51;-0.10;99.90
10443;DHT22;5269;51.146;16.986;2023-01-28T05:59:18;0.00;99.90
10443;DHT22;5269;51.146;16.986;2023-01-28T06:01:45;-0.10;99.90
10443;DHT22;5269;51.146;16.986;2023-01-28T06:04:15;0.00;99.90
10443;DHT22;5269;51.146;16.986;2023-01-28T06:06:43;0.00;99.90
10443;DHT22;5269;51.146;16.986;2023-01-28T06:09:40;-0.10;99.90
10443;DHT22;5269;51.146;16.986;2023-01-28T06:12:07;-0.10;99.90
10443;DHT22;5269;51.146;16.986;2023-01-28T06:14:34;-0.10;99.90
10443;DHT22;5269;51.146;16.986;2023-01-28T06:17:01;0.10;99.90
10443;DHT22;5269;51.146;16.986;2023-01-28T06:19:28;0.20;99.90
10443;DHT22;5269;51.146;16.986;2023-01-28T06:21:54;0.10;99.90
10443;DHT22;5269;51.146;16.986;2023-01-28T06:24:21;0.10;99.90
10443;DHT22;5269;51.146;16.986;2023-01-28T06:26:50;0.00;99.90
10443;DHT22;5269;51.146;16.986;2023-01-28T06:29:17;0.00;99.90
10443;DHT22;5269;51.146;16.986;2023-01-28T06:31:43;0.00;99.90
10443;DHT22;5269;51.146;16.986;2023-01-28T06:34:11;0.00;99.90
10443;DHT22;5269;51.146;16.986;2023-01-28T06:36:38;-0.10;99.90
10443;DHT22;5269;51.146;16.986;2023-01-28T06:39:05;-0.10;99.90
10443;DHT22;5269;51.146;16.986;2023-01-28T06:41:32;-0.20;99.90
10443;DHT22;5269;51.146;16.986;2023-01-28T06:44:00;-0.20;99.90
10443;DHT22;5269;51.146;16.986;2023-01-28T06:46:27;-0.10;99.90
10443;DHT22;5269;51.146;16.986;2023-01-28T06:48:54;-0.10;99.90
10443;DHT22;5269;51.146;16.986;2023-01-28T06:51:21;0.00;99.90
10443;DHT22;5269;51.146;16.986;2023-01-28T06:53:48;-0.10;99.90
10443;DHT22;5269;51.146;16.986;2023-01-28T06:56:14;-0.10;99.90
10443;DHT22;5269;51.146;16.986;2023-01-28T06:58:45;-0.10;99.90
10443;DHT22;5269;51.146;16.986;2023-01-28T07:01:14;-0.20;99.90
10443;DHT22;5269;51.146;16.986;2023-01-28T07:03:40;0.00;99.90
10443;DHT22;5269;51.146;16.986;2023-01-28T07:06:08;-0.20;99.90
10443;DHT22;5269;51.146;16.986;2023-01-28T07:08:35;-0.10;99.90
10443;DHT22;5269;51.146;16.986;2023-01-28T07:11:02;-0.10;99.90
10443;DHT22;5269;51.146;16.986;2023-01-28T07:13:29;-0.10;99.90
10443;DHT22;5269;51.146;16.986;2023-01-28T07:15:56;-0.10;99.90
10443;DHT22;5269;51.146;16.986;2023-01-28T07:18:25;-0.20;99.90
10443;DHT22;5269;51.146;16.986;2023-01-28T07:20:52;-0.20;99.90
10443;DHT22;5269;51.146;16.986;2023-01-28T07:23:19;-0.20;99.90
10443;DHT22;5269;51.146;16.986;2023-01-28T07:25:47;-0.30;99.90
10443;DHT22;5269;51.146;16.986;2023-01-28T07:28:14;-0.20;99.90
10443;DHT22;5269;51.146;16.986;2023-01-28T07:30:46;-0.30;99.90
10443;DHT22;5269;51.146;16.986;2023-01-28T07:33:13;-0.30;99.90
10443;DHT22;5269;51.146;16.986;2023-01-28T07:35:42;-0.30;99.90
10443;DHT22;5269;51.146;16.986;2023-01-28T07:38:09;-0.10;99.90
10443;DHT22;5269;51.146;16.986;2023-01-28T07:40:36;-0.20;99.90
10443;DHT22;5269;51.146;16.986;2023-01-28T07:43:03;-0.20;99.90
10443;DHT22;5269;51.146;16.986;2023-01-28T07:45:32;-0.20;99.90
10443;DHT22;5269;51.146;16.986;2023-01-28T07:48:00;-0.20;99.90
10443;DHT22;5269;51.146;16.986;2023-01-28T07:53:29;-0.20;99.90
10443;DHT22;5269;51.146;16.986;2023-01-28T07:55:59;-0.20;99.90
10443;DHT22;5269;51.146;16.986;2023-01-28T07:58:26;-0.20;99.90
10443;DHT22;5269;51.146;16.986;2023-01-28T08:00:55;-0.20;99.90
10443;DHT22;5269;51.146;16.986;2023-01-28T08:03:24;-0.20;99.90
10443;DHT22;5269;51.146;16.986;2023-01-28T08:05:52;-0.30;99.90
10443;DHT22;5269;51.146;16.986;2023-01-28T08:08:20;-0.20;99.90
10443;DHT22;5269;51.146;16.986;2023-01-28T08:10:48;-0.20;99.90
10443;DHT22;5269;51.146;16.986;2023-01-28T08:13:18;-0.10;99.90
10443;DHT22;5269;51.146;16.986;2023-01-28T08:15:45;-0.10;99.90
10443;DHT22;5269;51.146;16.986;2023-01-28T08:18:15;-0.10;99.90
10443;DHT22;5269;51.146;16.986;2023-01-28T08:20:42;-0.20;99.90
10443;DHT22;5269;51.146;16.986;2023-01-28T08:23:19;-0.20;99.90
10443;DHT22;5269;51.146;16.986;2023-01-28T08:25:48;0.00;99.90
10443;DHT22;5269;51.146;16.986;2023-01-28T08:28:26;0.00;99.90
10443;DHT22;5269;51.146;16.986;2023-01-28T08:30:55;-0.20;99.90
10443;DHT22;5269;51.146;16.986;2023-01-28T08:33:25;-0.10;99.90
10443;DHT22;5269;51.146;16.986;2023-01-28T08:35:51;-0.20;99.90
10443;DHT22;5269;51.146;16.986;2023-01-28T08:38:19;-0.20;99.90
10443;DHT22;5269;51.146;16.986;2023-01-28T08:40:47;-0.20;99.90
10443;DHT22;5269;51.146;16.986;2023-01-28T08:43:15;-0.20;99.90
10443;DHT22;5269;51.146;16.986;2023-01-28T08:45:44;-0.20;99.90
10443;DHT22;5269;51.146;16.986;2023-01-28T08:48:14;-0.20;99.90
10443;DHT22;5269;51.146;16.986;2023-01-28T08:50:42;-0.20;99.90
10443;DHT22;5269;51.146;16.986;2023-01-28T08:53:11;-0.20;99.90
10443;DHT22;5269;51.146;16.986;2023-01-28T08:55:38;-0.20;99.90
10443;DHT22;5269;51.146;16.986;2023-01-28T08:58:09;-0.30;99.90
10443;DHT22;5269;51.146;16.986;2023-01-28T09:00:36;-0.20;99.90
10443;DHT22;5269;51.146;16.986;2023-01-28T09:03:04;-0.20;99.90
10443;DHT22;5269;51.146;16.986;2023-01-28T09:05:31;-0.20;99.90
10443;DHT22;5269;51.146;16.986;2023-01-28T09:08:06;-0.10;99.90
10443;DHT22;5269;51.146;16.986;2023-01-28T09:10:34;0.10;99.90
10443;DHT22;5269;51.146;16.986;2023-01-28T09:13:10;0.00;99.90
10443;DHT22;5269;51.146;16.986;2023-01-28T09:19:10;0.00;99.90
10443;DHT22;5269;51.146;16.986;2023-01-28T09:21:38;-0.10;99.90
10443;DHT22;5269;51.146;16.986;2023-01-28T09:24:15;0.00;99.90
10443;DHT22;5269;51.146;16.986;2023-01-28T09:26:47;-0.10;99.90
10443;DHT22;5269;51.146;16.986;2023-01-28T09:29:17;0.00;99.90
10443;DHT22;5269;51.146;16.986;2023-01-28T09:31:44;-0.20;99.90
10443;DHT22;5269;51.146;16.986;2023-01-28T09:34:18;-0.10;99.90
10443;DHT22;5269;51.146;16.986;2023-01-28T09:36:45;-0.10;99.90
10443;DHT22;5269;51.146;16.986;2023-01-28T09:39:12;0.00;99.90
10443;DHT22;5269;51.146;16.986;2023-01-28T09:41:47;0.00;99.90
10443;DHT22;5269;51.146;16.986;2023-01-28T09:44:33;-0.10;99.90
10443;DHT22;5269;51.146;16.986;2023-01-28T09:47:07;-0.20;99.90
10443;DHT22;5269;51.146;16.986;2023-01-28T09:49:42;-0.30;99.90
10443;DHT22;5269;51.146;16.986;2023-01-28T09:52:13;-0.30;99.90
10443;DHT22;5269;51.146;16.986;2023-01-28T09:54:52;-0.10;99.90
10443;DHT22;5269;51.146;16.986;2023-01-28T13:28:45;0.00;99.90
10443;DHT22;5269;51.146;16.986;2023-01-28T13:31:13;0.00;99.90
10443;DHT22;5269;51.146;16.986;2023-01-28T13:39:14;-0.10;99.90
10443;DHT22;5269;51.146;16.986;2023-01-28T13:41:46;0.00;99.90
10443;DHT22;5269;51.146;16.986;2023-01-28T13:44:25;-0.20;99.90
10443;DHT22;5269;51.146;16.986;2023-01-28T13:46:53;-0.20;99.90
10443;DHT22;5269;51.146;16.986;2023-01-28T13:49:26;-0.20;99.90
10443;DHT22;5269;51.146;16.986;2023-01-28T13:52:00;-0.30;99.90
10443;DHT22;5269;51.146;16.986;2023-01-28T13:54:31;-0.20;99.90
10443;DHT22;5269;51.146;16.986;2023-01-28T14:00:06;-0.20;99.90
10443;DHT22;5269;51.146;16.986;2023-01-28T14:02:56;-0.20;99.90
10443;DHT22;5269;51.146;16.986;2023-01-28T14:05:44;-0.20;99.90
10443;DHT22;5269;51.146;16.986;2023-01-28T14:08:37;-0.20;99.90
10443;DHT22;5269;51.146;16.986;2023-01-28T14:11:18;-0.20;99.90
10443;DHT22;5269;51.146;16.986;2023-01-28T14:14:23;-0.30;99.90
10443;DHT22;5269;51.146;16.986;2023-01-28T14:17:15;-0.20;99.90
10443;DHT22;5269;51.146;16.986;2023-01-28T14:19:46;-0.30;99.90
10443;DHT22;5269;51.146;16.986;2023-01-28T14:22:19;-0.20;99.90
10443;DHT22;5269;51.146;16.986;2023-01-28T14:24:47;-0.20;99.90
10443;DHT22;5269;51.146;16.986;2023-01-28T14:27:16;-0.20;99.90
10443;DHT22;5269;51.146;16.986;2023-01-28T14:29:50;-0.20;99.90
10443;DHT22;5269;51.146;16.986;2023-01-28T14:32:25;-0.10;99.90
10443;DHT22;5269;51.146;16.986;2023-01-28T14:34:54;-0.30;99.90
10443;DHT22;5269;51.146;16.986;2023-01-28T14:37:27;-0.30;99.90
10443;DHT22;5269;51.146;16.986;2023-01-28T14:39:57;-0.30;99.90
10443;DHT22;5269;51.146;16.986;2023-01-28T14:42:26;-0.40;99.90
10443;DHT22;5269;51.146;16.986;2023-01-28T14:45:04;-0.40;99.90
10443;DHT22;5269;51.146;16.986;2023-01-28T14:47:52;-0.50;99.90
10443;DHT22;5269;51.146;16.986;2023-01-28T14:50:34;-0.50;93.90
10443;DHT22;5269;51.146;16.986;2023-01-28T14:53:28;-0.60;11.90
10443;DHT22;5269;51.146;16.986;2023-01-28T14:56:02;-0.50;99.90
10443;DHT22;5269;51.146;16.986;2023-01-28T14:58:37;-0.60;27.80
10443;DHT22;5269;51.146;16.986;2023-01-28T15:01:19;-0.70;23.20
10443;DHT22;5269;51.146;16.986;2023-01-28T15:03:48;-0.60;65.10
10443;DHT22;5269;51.146;16.986;2023-01-28T15:06:17;-0.60;52.00
10443;DHT22;5269;51.146;16.986;2023-01-28T15:08:45;-0.60;90.40
10443;DHT22;5269;51.146;16.986;2023-01-28T15:11:14;-0.70;86.30
10443;DHT22;5269;51.146;16.986;2023-01-28T15:13:44;-0.70;99.90
10443;DHT22;5269;51.146;16.986;2023-01-28T15:16:17;-0.70;41.50
10443;DHT22;5269;51.146;16.986;2023-01-28T15:18:49;-0.70;56.70
10443;DHT22;5269;51.146;16.986;2023-01-28T15:21:19;-0.80;51.20
10443;DHT22;5269;51.146;16.986;2023-01-28T15:23:48;-0.80;99.90
10443;DHT22;5269;51.146;16.986;2023-01-28T15:26:33;-0.70;23.80
10443;DHT22;5269;51.146;16.986;2023-01-28T15:29:05;-0.70;32.50
10443;DHT22;5269;51.146;16.986;2023-01-28T15:32:17;-0.70;24.80
10443;DHT22;5269;51.146;16.986;2023-01-28T15:34:50;-0.80;56.20
10443;DHT22;5269;51.146;16.986;2023-01-28T15:37:18;-0.80;54.80
10443;DHT22;5269;51.146;16.986;2023-01-28T15:39:45;-0.80;99.90
10443;DHT22;5269;51.146;16.986;2023-01-28T15:42:19;-0.70;46.50
10443;DHT22;5269;51.146;16.986;2023-01-28T15:44:48;-0.70;99.90
10443;DHT22;5269;51.146;16.986;2023-01-28T15:47:20;-0.70;99.90
10443;DHT22;5269;51.146;16.986;2023-01-28T15:49:53;-0.80;99.90
10443;DHT22;5269;51.146;16.986;2023-01-28T15:52:28;-0.90;96.40
10443;DHT22;5269;51.146;16.986;2023-01-28T15:54:56;-0.90;77.30
10443;DHT22;5269;51.146;16.986;2023-01-28T15:57:26;-0.90;92.80
10443;DHT22;5269;51.146;16.986;2023-01-28T16:00:08;-1.00;76.10
10443;DHT22;5269;51.146;16.986;2023-01-28T16:02:42;-1.00;99.90
10443;DHT22;5269;51.146;16.986;2023-01-28T16:05:25;-1.00;99.90
10443;DHT22;5269;51.146;16.986;2023-01-28T16:07:52;-1.10;51.50
10443;DHT22;5269;51.146;16.986;2023-01-28T16:10:25;-1.00;77.20
10443;DHT22;5269;51.146;16.986;2023-01-28T16:12:57;-1.00;57.90
10443;DHT22;5269;51.146;16.986;2023-01-28T16:15:29;-0.90;63.50
10443;DHT22;5269;51.146;16.986;2023-01-28T16:18:01;-0.90;19.00
10443;DHT22;5269;51.146;16.986;2023-01-28T16:20:37;-1.10;1.00
10443;DHT22;5269;51.146;16.986;2023-01-28T16:26:22;-1.10;1.00
10443;DHT22;5269;51.146;16.986;2023-01-28T16:29:21;-1.00;1.00
10443;DHT22;5269;51.146;16.986;2023-01-28T16:31:59;-1.00;1.00
10443;DHT22;5269;51.146;16.986;2023-01-28T16:34:27;-1.10;1.00
10443;DHT22;5269;51.146;16.986;2023-01-28T16:36:57;-1.10;1.00
10443;DHT22;5269;51.146;16.986;2023-01-28T16:39:24;-1.20;1.00
10443;DHT22;5269;51.146;16.986;2023-01-28T16:41:51;-1.10;1.00
10443;DHT22;5269;51.146;16.986;2023-01-28T16:44:21;-1.20;1.00
10443;DHT22;5269;51.146;16.986;2023-01-28T16:46:48;-1.20;1.00
10443;DHT22;5269;51.146;16.986;2023-01-28T16:49:15;-1.30;1.00
10443;DHT22;5269;51.146;16.986;2023-01-28T16:51:42;-1.30;1.00
10443;DHT22;5269;51.146;16.986;2023-01-28T16:54:12;-1.40;1.00
10443;DHT22;5269;51.146;16.986;2023-01-28T16:56:40;-1.30;1.00
10443;DHT22;5269;51.146;16.986;2023-01-28T16:59:09;-1.30;1.00
10443;DHT22;5269;51.146;16.986;2023-01-28T17:01:37;-1.30;1.00
10443;DHT22;5269;51.146;16.986;2023-01-28T17:04:04;-1.30;99.90
10443;DHT22;5269;51.146;16.986;2023-01-28T17:06:34;-1.20;1.00
10443;DHT22;5269;51.146;16.986;2023-01-28T17:09:04;-1.40;1.00
10443;DHT22;5269;51.146;16.986;2023-01-28T17:11:34;-1.30;99.90
10443;DHT22;5269;51.146;16.986;2023-01-28T17:14:01;-1.30;99.90
10443;DHT22;5269;51.146;16.986;2023-01-28T17:16:28;-1.30;1.00
10443;DHT22;5269;51.146;16.986;2023-01-28T17:18:55;-1.30;6.40
10443;DHT22;5269;51.146;16.986;2023-01-28T17:21:22;-1.20;1.00
10443;DHT22;5269;51.146;16.986;2023-01-28T17:23:50;-1.20;1.00
10443;DHT22;5269;51.146;16.986;2023-01-28T17:26:17;-1.20;99.90
10443;DHT22;5269;51.146;16.986;2023-01-28T17:28:50;-1.10;99.90
10443;DHT22;5269;51.146;16.986;2023-01-28T17:31:17;-1.10;72.50
10443;DHT22;5269;51.146;16.986;2023-01-28T17:33:44;-1.00;1.00
10443;DHT22;5269;51.146;16.986;2023-01-28T17:36:11;-1.00;1.00
10443;DHT22;5269;51.146;16.986;2023-01-28T17:38:38;-1.10;1.00
10443;DHT22;5269;51.146;16.986;2023-01-28T17:41:10;-1.00;1.00
10443;DHT22;5269;51.146;16.986;2023-01-28T17:43:38;-1.00;1.00
10443;DHT22;5269;51.146;16.986;2023-01-28T17:46:11;-1.00;1.00
10443;DHT22;5269;51.146;16.986;2023-01-28T17:48:38;-1.00;1.00
10443;DHT22;5269;51.146;16.986;2023-01-28T17:51:05;-0.90;1.00
10443;DHT22;5269;51.146;16.986;2023-01-28T17:53:32;-1.00;1.00
10443;DHT22;5269;51.146;16.986;2023-01-28T17:55:59;-1.10;1.00
10443;DHT22;5269;51.146;16.986;2023-01-28T17:58:26;-1.20;1.00
10443;DHT22;5269;51.146;16.986;2023-01-28T18:00:53;-1.20;1.00
10443;DHT22;5269;51.146;16.986;2023-01-28T18:03:21;-1.20;99.90
10443;DHT22;5269;51.146;16.986;2023-01-28T18:05:55;-1.10;1.00
10443;DHT22;5269;51.146;16.986;2023-01-28T18:08:23;-1.20;1.00
10443;DHT22;5269;51.146;16.986;2023-01-28T18:10:49;-1.20;1.00
10443;DHT22;5269;51.146;16.986;2023-01-28T18:13:16;-1.20;1.00
10443;DHT22;5269;51.146;16.986;2023-01-28T18:15:43;-1.20;1.00
10443;DHT22;5269;51.146;16.986;2023-01-28T18:18:10;-1.20;1.00
10443;DHT22;5269;51.146;16.986;2023-01-28T18:20:38;-1.20;69.80
10443;DHT22;5269;51.146;16.986;2023-01-28T18:23:05;-1.30;1.00
10443;DHT22;5269;51.146;16.986;2023-01-28T18:25:32;-1.20;99.90
10443;DHT22;5269;51.146;16.986;2023-01-28T18:27:59;-1.10;99.90
10443;DHT22;5269;51.146;16.986;2023-01-28T18:30:26;-1.10;99.90
10443;DHT22;5269;51.146;16.986;2023-01-28T18:32:54;-1.10;99.90
10443;DHT22;5269;51.146;16.986;2023-01-28T18:35:21;-1.10;1.00
10443;DHT22;5269;51.146;16.986;2023-01-28T18:37:49;-1.10;1.00
10443;DHT22;5269;51.146;16.986;2023-01-28T18:40:17;-1.00;1.00
10443;DHT22;5269;51.146;16.986;2023-01-28T18:42:43;-1.00;1.00
10443;DHT22;5269;51.146;16.986;2023-01-28T18:45:10;-1.00;1.00
10443;DHT22;5269;51.146;16.986;2023-01-28T18:47:37;-1.00;1.00
10443;DHT22;5269;51.146;16.986;2023-01-28T18:50:05;-1.00;4.20
10443;DHT22;5269;51.146;16.986;2023-01-28T18:52:32;-1.00;1.00
10443;DHT22;5269;51.146;16.986;2023-01-28T18:55:00;-1.00;99.90
10443;DHT22;5269;51.146;16.986;2023-01-28T18:57:33;-1.00;55.70
10443;DHT22;5269;51.146;16.986;2023-01-28T19:00:00;-1.00;1.00
10443;DHT22;5269;51.146;16.986;2023-01-28T19:02:27;-1.00;1.00
10443;DHT22;5269;51.146;16.986;2023-01-28T19:04:54;-0.90;1.00
10443;DHT22;5269;51.146;16.986;2023-01-28T19:07:21;-0.90;1.00
10443;DHT22;5269;51.146;16.986;2023-01-28T19:09:48;-0.90;1.00
10443;DHT22;5269;51.146;16.986;2023-01-28T19:12:17;-0.90;1.00
10443;DHT22;5269;51.146;16.986;2023-01-28T19:14:44;-0.90;1.00
10443;DHT22;5269;51.146;16.986;2023-01-28T19:17:13;-0.90;1.00
10443;DHT22;5269;51.146;16.986;2023-01-28T19:19:40;-0.80;1.00
10443;DHT22;5269;51.146;16.986;2023-01-28T19:22:07;-0.90;1.00
10443;DHT22;5269;51.146;16.986;2023-01-28T19:24:34;-0.80;1.00
10443;DHT22;5269;51.146;16.986;2023-01-28T19:27:01;-0.90;1.00
10443;DHT22;5269;51.146;16.986;2023-01-28T19:29:30;-0.90;1.00
10443;DHT22;5269;51.146;16.986;2023-01-28T19:31:57;-0.70;1.00
10443;DHT22;5269;51.146;16.986;2023-01-28T19:34:24;-0.80;1.00
10443;DHT22;5269;51.146;16.986;2023-01-28T19:36:51;-0.80;1.00
10443;DHT22;5269;51.146;16.986;2023-01-28T19:39:19;-0.80;1.00
10443;DHT22;5269;51.146;16.986;2023-01-28T19:41:46;-0.90;1.00
10443;DHT22;5269;51.146;16.986;2023-01-28T19:44:13;-1.00;1.00
10443;DHT22;5269;51.146;16.986;2023-01-28T19:46:41;-0.90;1.00
10443;DHT22;5269;51.146;16.986;2023-01-28T19:49:10;-0.80;1.00
10443;DHT22;5269;51.146;16.986;2023-01-28T19:51:41;-0.70;99.90
10443;DHT22;5269;51.146;16.986;2023-01-28T19:54:08;-0.70;99.90
10443;DHT22;5269;51.146;16.986;2023-01-28T19:56:35;-0.80;99.90
10443;DHT22;5269;51.146;16.986;2023-01-28T19:59:03;-0.70;99.90
10443;DHT22;5269;51.146;16.986;2023-01-28T20:01:30;-0.70;99.90
10443;DHT22;5269;51.146;16.986;2023-01-28T20:03:59;-0.80;99.90
10443;DHT22;5269;51.146;16.986;2023-01-28T20:06:27;-0.90;99.90
10443;DHT22;5269;51.146;16.986;2023-01-28T20:08:55;-0.90;92.90
10443;DHT22;5269;51.146;16.986;2023-01-28T20:11:23;-0.90;1.00
10443;DHT22;5269;51.146;16.986;2023-01-28T20:13:51;-0.80;1.00
10443;DHT22;5269;51.146;16.986;2023-01-28T20:16:19;-0.90;99.90
10443;DHT22;5269;51.146;16.986;2023-01-28T20:18:48;-0.80;99.90
10443;DHT22;5269;51.146;16.986;2023-01-28T20:21:17;-0.90;99.90
10443;DHT22;5269;51.146;16.986;2023-01-28T20:23:45;-0.90;99.90
10443;DHT22;5269;51.146;16.986;2023-01-28T20:26:11;-0.90;99.90
10443;DHT22;5269;51.146;16.986;2023-01-28T20:28:39;-0.90;99.90
10443;DHT22;5269;51.146;16.986;2023-01-28T20:31:07;-0.90;99.90
10443;DHT22;5269;51.146;16.986;2023-01-28T20:33:35;-0.90;99.90
10443;DHT22;5269;51.146;16.986;2023-01-28T20:36:04;-0.80;99.90
10443;DHT22;5269;51.146;16.986;2023-01-28T20:38:35;-0.90;99.90
10443;DHT22;5269;51.146;16.986;2023-01-28T20:41:05;-0.90;99.90
10443;DHT22;5269;51.146;16.986;2023-01-28T20:43:33;-0.90;99.90
10443;DHT22;5269;51.146;16.986;2023-01-28T20:46:04;-0.90;99.90
10443;DHT22;5269;51.146;16.986;2023-01-28T20:48:31;-0.80;99.90
10443;DHT22;5269;51.146;16.986;2023-01-28T20:51:04;-0.80;99.90
10443;DHT22;5269;51.146;16.986;2023-01-28T20:53:31;-0.70;99.90
10443;DHT22;5269;51.146;16.986;2023-01-28T20:55:59;-0.70;99.90
10443;DHT22;5269;51.146;16.986;2023-01-28T20:58:27;-0.70;99.90
10443;DHT22;5269;51.146;16.986;2023-01-28T21:00:54;-0.70;99.90
10443;DHT22;5269;51.146;16.986;2023-01-28T21:03:21;-0.60;99.90
10443;DHT22;5269;51.146;16.986;2023-01-28T21:05:48;-0.70;99.90
10443;DHT22;5269;51.146;16.986;2023-01-28T21:08:15;-0.70;99.90
10443;DHT22;5269;51.146;16.986;2023-01-28T21:10:42;-0.80;99.90
10443;DHT22;5269;51.146;16.986;2023-01-28T21:13:11;-0.80;99.90
10443;DHT22;5269;51.146;16.986;2023-01-28T21:15:57;-0.80;99.90
10443;DHT22;5269;51.146;16.986;2023-01-28T21:18:24;-0.80;99.90
10443;DHT22;5269;51.146;16.986;2023-01-28T21:20:53;-0.80;99.90
10443;DHT22;5269;51.146;16.986;2023-01-28T21:23:22;-0.90;99.90
10443;DHT22;5269;51.146;16.986;2023-01-28T21:25:49;-0.90;99.90